Time;durP1;ratioP1;P1;durP2;ratioP2;P2;SDS_P1;SDS_P2;PMS_P1;PMS_P2;Temp;Humidity;BMP_temperature;BMP_pressure;BME280_temperature;BME280_humidity;BME280_pressure;Samples;Min_cycle;Max_cycle;Signal;HPM_P1;HPM_P2
2022/08/10 00:01:33;;;;;;;5.03;1.90;;;17.80;72.90;;;;;;5018104;28;20049;-83
2022/08/10 00:04:00;;;;;;;2.05;1.40;;;17.80;73.10;;;;;;5018613;28;20455;-83
2022/08/10 00:06:26;;;;;;;1.42;1.33;;;17.80;73.30;;;;;;5017640;28;20037;-82
2022/08/10 00:08:51;;;;;;;3.38;1.95;;;17.70;73.40;;;;;;5019039;28;20022;-83
2022/08/10 00:11:17;;;;;;;2.95;2.15;;;17.70;73.80;;;;;;5018269;28;20030;-84
2022/08/10 00:13:50;;;;;;;3.85;2.00;;;17.60;74.50;;;;;;4995606;28;20052;-83
2022/08/10 00:16:16;;;;;;;2.38;1.83;;;17.50;75.30;;;;;;4981007;28;20046;-83
2022/08/10 00:18:43;;;;;;;4.53;2.20;;;17.40;75.80;;;;;;5000510;28;20054;-82
2022/08/10 00:21:09;;;;;;;3.10;1.83;;;17.40;76.50;;;;;;4990670;28;20022;-83
2022/08/10 00:23:37;;;;;;;1.85;1.70;;;17.30;76.80;;;;;;4978783;28;20057;-83
2022/08/10 00:26:04;;;;;;;2.85;1.75;;;17.20;77.10;;;;;;4995454;28;20082;-83
2022/08/10 00:28:30;;;;;;;3.95;1.88;;;17.20;77.80;;;;;;4996088;28;20029;-83
2022/08/10 00:30:56;;;;;;;2.83;1.98;;;17.20;77.30;;;;;;4996368;28;20022;-83
2022/08/10 00:33:21;;;;;;;2.15;1.80;;;17.10;77.40;;;;;;4995659;28;20022;-82
2022/08/10 00:35:47;;;;;;;5.82;2.42;;;17.10;77.60;;;;;;4980060;28;20092;-83
2022/08/10 00:38:13;;;;;;;2.70;1.85;;;17.10;77.50;;;;;;4998080;28;20388;-84
2022/08/10 00:40:39;;;;;;;2.22;2.03;;;17.10;77.60;;;;;;4980776;28;20026;-84
2022/08/10 00:43:05;;;;;;;2.30;2.10;;;17.00;77.90;;;;;;5006557;28;20049;-83
2022/08/10 00:45:31;;;;;;;3.60;2.28;;;17.00;78.60;;;;;;5019270;28;20057;-82
2022/08/10 00:47:57;;;;;;;1.83;1.73;;;16.90;79.50;;;;;;5034814;28;20010;-84
2022/08/10 00:50:22;;;;;;;2.22;2.00;;;16.70;80.20;;;;;;5013793;28;20089;-84
2022/08/10 00:52:48;;;;;;;2.22;1.95;;;16.60;81.00;;;;;;5032454;28;20095;-82
2022/08/10 00:55:14;;;;;;;3.40;1.80;;;16.50;81.70;;;;;;5018186;28;20042;-83
2022/08/10 00:57:41;;;;;;;2.35;2.10;;;;;;;;;;5017909;28;20030;-83
2022/08/10 01:00:08;;;;;;;2.33;1.88;;;16.50;82.40;;;;;;5017741;28;20058;-83
2022/08/10 01:02:34;;;;;;;2.20;1.90;;;16.50;83.30;;;;;;5019784;28;20085;-83
2022/08/10 01:05:03;;;;;;;3.63;1.85;;;16.40;83.50;;;;;;5029099;28;20034;-82
2022/08/10 01:07:55;;;;;;;2.20;2.00;;;16.40;84.00;;;;;;5015115;28;20045;-83
2022/08/10 01:10:28;;;;;;;3.55;1.98;;;16.40;84.40;;;;;;5033265;28;20029;-82
2022/08/10 01:13:17;;;;;;;3.53;1.73;;;16.30;84.80;;;;;;5028968;28;20030;-82
2022/08/10 01:16:17;;;;;;;2.78;2.08;;;16.30;85.30;;;;;;5033060;28;20029;-81
2022/08/10 01:18:49;;;;;;;3.55;2.08;;;16.20;85.80;;;;;;5018391;28;20026;-83
2022/08/10 01:21:29;;;;;;;2.05;1.77;;;16.20;86.30;;;;;;5001220;28;20042;-84
2022/08/10 01:24:04;;;;;;;2.15;1.95;;;16.20;86.60;;;;;;5025903;28;20033;-83
2022/08/10 01:26:51;;;;;;;5.13;2.50;;;16.20;87.00;;;;;;5041054;28;20030;-84
2022/08/10 01:29:58;;;;;;;3.90;2.13;;;16.20;87.30;;;;;;5041111;28;20052;-83
2022/08/10 01:32:49;;;;;;;2.13;1.73;;;16.20;87.60;;;;;;4957682;29;20508;-83
2022/08/10 01:35:26;;;;;;;2.95;2.05;;;16.10;87.70;;;;;;5003103;28;20067;-83
2022/08/10 01:38:34;;;;;;;4.05;2.45;;;16.10;87.80;;;;;;5003020;28;20033;-83
2022/08/10 01:41:14;;;;;;;4.10;1.90;;;16.10;88.00;;;;;;4976295;28;20045;-83
2022/08/10 01:43:47;;;;;;;4.05;2.17;;;16.10;88.20;;;;;;4993230;28;20116;-83
2022/08/10 01:46:16;;;;;;;4.07;2.83;;;16.10;88.60;;;;;;5018505;28;20041;-83
2022/08/10 01:48:51;;;;;;;3.03;2.08;;;16.10;89.10;;;;;;5004030;28;20099;-82
2022/08/10 01:51:37;;;;;;;4.45;2.65;;;16.00;89.30;;;;;;4995800;28;20439;-84
2022/08/10 01:54:06;;;;;;;5.50;2.58;;;16.00;89.80;;;;;;5004878;28;20074;-83
2022/08/10 01:56:39;;;;;;;11.55;3.08;;;15.90;90.10;;;;;;4999116;28;20038;-82
2022/08/10 01:59:25;;;;;;;6.05;2.70;;;15.80;90.50;;;;;;4985872;28;20491;-82
2022/08/10 02:01:55;;;;;;;2.30;1.90;;;15.80;90.60;;;;;;5005647;28;20116;-82
2022/08/10 02:04:27;;;;;;;3.50;2.58;;;15.70;90.80;;;;;;5000287;28;20034;-81
2022/08/10 02:06:54;;;;;;;3.75;2.65;;;15.70;90.90;;;;;;4997230;28;20052;-83
2022/08/10 02:09:27;;;;;;;2.13;1.92;;;15.70;90.90;;;;;;4985957;28;20458;-82
2022/08/10 02:11:56;;;;;;;2.97;2.40;;;15.70;91.00;;;;;;4999747;28;20541;-83
2022/08/10 02:14:25;;;;;;;4.60;2.20;;;15.70;91.20;;;;;;5020525;28;20036;-83
2022/08/10 02:16:52;;;;;;;4.28;2.05;;;15.70;91.20;;;;;;5008789;28;20025;-83
2022/08/10 02:19:22;;;;;;;4.50;2.30;;;15.70;91.20;;;;;;4984822;28;20026;-83
2022/08/10 02:21:51;;;;;;;2.92;2.17;;;15.70;91.30;;;;;;4993799;28;20030;-83
2022/08/10 02:24:18;;;;;;;2.88;2.08;;;15.70;91.20;;;;;;5020782;28;20386;-81
2022/08/10 02:26:45;;;;;;;3.28;2.30;;;15.70;91.00;;;;;;5017632;28;20034;-83
2022/08/10 02:29:15;;;;;;;2.35;1.75;;;15.70;91.10;;;;;;5020156;28;20037;-83
2022/08/10 02:31:42;;;;;;;2.30;1.92;;;15.70;91.10;;;;;;5002597;28;20030;-82
2022/08/10 02:34:10;;;;;;;2.95;1.90;;;15.70;90.90;;;;;;5020213;28;20018;-83
2022/08/10 02:36:40;;;;;;;3.80;2.35;;;15.80;90.70;;;;;;5013864;28;20026;-84
2022/08/10 02:39:07;;;;;;;2.78;2.58;;;15.80;90.30;;;;;;5000640;28;20030;-83
2022/08/10 02:41:41;;;;;;;3.42;2.05;;;15.80;89.80;;;;;;5000658;28;20145;-82
2022/08/10 02:44:16;;;;;;;1.95;1.80;;;15.80;89.50;;;;;;5000959;28;20038;-83
2022/08/10 02:46:48;;;;;;;3.53;1.73;;;15.80;89.30;;;;;;5001287;28;20418;-84
2022/08/10 02:49:25;;;;;;;2.42;1.85;;;15.90;89.20;;;;;;5006218;28;20085;-82
2022/08/10 02:52:00;;;;;;;4.10;2.20;;;15.80;89.10;;;;;;4991782;28;20498;-83
2022/08/10 02:54:32;;;;;;;2.55;1.90;;;15.80;89.10;;;;;;5003012;28;20037;-83
2022/08/10 02:57:19;;;;;;;2.95;2.20;;;15.80;89.10;;;;;;5002495;28;20018;-82
2022/08/10 02:59:48;;;;;;;2.83;2.25;;;15.70;88.90;;;;;;5019914;28;20078;-83
2022/08/10 03:02:36;;;;;;;2.60;2.15;;;15.70;88.80;;;;;;5016805;28;20072;-83
2022/08/10 03:05:11;;;;;;;3.58;2.05;;;15.70;88.70;;;;;;5017927;28;20065;-83
2022/08/10 03:07:58;;;;;;;2.00;1.80;;;15.70;88.60;;;;;;5051568;23;20018;-81
2022/08/10 03:10:28;;;;;;;2.47;1.50;;;15.70;88.70;;;;;;4988508;28;20026;-81
2022/08/10 03:13:04;;;;;;;2.35;2.15;;;15.70;88.80;;;;;;4988504;28;20111;-81
2022/08/10 03:15:32;;;;;;;3.30;1.80;;;15.70;88.70;;;;;;4987213;28;20033;-81
2022/08/10 03:17:59;;;;;;;4.10;2.20;;;15.60;88.60;;;;;;4989150;28;20078;-82
2022/08/10 03:20:31;;;;;;;2.10;1.95;;;15.60;88.60;;;;;;5002120;28;20033;-82
2022/08/10 03:22:58;;;;;;;1.88;1.70;;;15.60;88.60;;;;;;4989280;28;20120;-82
2022/08/10 03:25:27;;;;;;;3.45;1.83;;;15.60;88.80;;;;;;4991620;28;20018;-82
2022/08/10 03:27:53;;;;;;;2.97;1.80;;;15.60;88.70;;;;;;4975743;28;20118;-82
2022/08/10 03:30:19;;;;;;;4.55;2.20;;;15.60;88.80;;;;;;4996778;28;20046;-82
2022/08/10 03:32:47;;;;;;;3.30;2.63;;;15.60;88.70;;;;;;4981655;28;20220;-83
2022/08/10 03:35:13;;;;;;;4.00;2.25;;;15.50;88.80;;;;;;4989964;28;20506;-83
2022/08/10 03:37:39;;;;;;;2.42;2.20;;;15.50;88.80;;;;;;4985087;28;20018;-82
2022/08/10 03:40:06;;;;;;;2.17;1.95;;;15.50;89.00;;;;;;4986860;28;20114;-83
2022/08/10 03:42:34;;;;;;;3.55;1.80;;;15.50;89.10;;;;;;4968903;28;20027;-82
2022/08/10 03:45:03;;;;;;;3.90;2.05;;;15.50;89.20;;;;;;4986895;28;20042;-83
2022/08/10 03:47:30;;;;;;;3.50;1.83;;;15.50;89.40;;;;;;4987432;28;20026;-82
2022/08/10 03:49:57;;;;;;;2.08;1.90;;;15.40;89.30;;;;;;4996888;28;20022;-82
2022/08/10 03:52:24;;;;;;;4.85;2.20;;;15.40;89.30;;;;;;4977686;28;20099;-83
2022/08/10 03:54:51;;;;;;;3.00;2.00;;;15.40;89.50;;;;;;4969089;28;20056;-83
2022/08/10 03:57:17;;;;;;;2.33;2.13;;;15.40;89.60;;;;;;4986699;28;20015;-82
2022/08/10 03:59:44;;;;;;;2.45;1.80;;;15.30;89.80;;;;;;4985077;28;20030;-83
2022/08/10 04:02:10;;;;;;;3.03;2.40;;;15.30;90.00;;;;;;4984890;28;20015;-82
2022/08/10 04:04:36;;;;;;;3.42;1.85;;;15.30;90.10;;;;;;4985158;28;20023;-82
2022/08/10 04:07:02;;;;;;;1.90;1.80;;;15.30;90.10;;;;;;4986761;28;20015;-82
2022/08/10 04:09:34;;;;;;;2.17;1.90;;;15.30;90.10;;;;;;4986748;28;20023;-83
2022/08/10 04:12:00;;;;;;;2.78;2.25;;;15.30;90.10;;;;;;4996073;28;20061;-83
2022/08/10 04:14:26;;;;;;;3.10;2.15;;;15.30;90.00;;;;;;4973157;29;20027;-83
2022/08/10 04:16:52;;;;;;;2.15;2.00;;;15.30;90.00;;;;;;4972371;29;20038;-83
2022/08/10 04:19:18;;;;;;;3.20;1.75;;;15.30;90.10;;;;;;4982848;28;20024;-82
2022/08/10 04:21:50;;;;;;;2.38;2.10;;;15.30;90.00;;;;;;4986751;28;20046;-82
2022/08/10 04:24:21;;;;;;;3.13;2.38;;;15.20;90.00;;;;;;4987996;28;20023;-81
2022/08/10 04:26:47;;;;;;;3.35;2.53;;;15.20;90.00;;;;;;4986107;28;20065;-81
2022/08/10 04:29:13;;;;;;;3.63;2.10;;;15.20;90.10;;;;;;4966688;28;20027;-82
2022/08/10 04:31:42;;;;;;;2.83;2.38;;;15.20;90.20;;;;;;4985030;28;20035;-82
2022/08/10 04:34:09;;;;;;;3.78;2.33;;;15.20;90.20;;;;;;4984301;28;20053;-81
2022/08/10 04:36:35;;;;;;;1.73;1.63;;;15.20;90.20;;;;;;4965080;28;20038;-81
2022/08/10 04:39:01;;;;;;;3.60;2.00;;;15.30;90.20;;;;;;4993372;28;20035;-82
2022/08/10 04:41:27;;;;;;;2.70;2.28;;;15.30;90.00;;;;;;4994649;28;20013;-82
2022/08/10 04:43:53;;;;;;;2.20;2.00;;;15.40;90.00;;;;;;4994771;28;20090;-82
2022/08/10 04:46:19;;;;;;;3.33;1.85;;;15.40;89.70;;;;;;4990268;28;20031;-81
2022/08/10 04:48:44;;;;;;;2.15;2.05;;;15.40;89.50;;;;;;4982363;28;20114;-81
2022/08/10 04:51:15;;;;;;;2.50;2.30;;;15.40;89.30;;;;;;4989445;28;20029;-81
2022/08/10 04:53:41;;;;;;;2.42;2.13;;;15.40;89.20;;;;;;4993431;28;20106;-82
2022/08/10 04:56:07;;;;;;;3.47;2.28;;;15.40;89.10;;;;;;4986214;28;20226;-82
2022/08/10 04:58:34;;;;;;;4.40;2.08;;;15.40;89.20;;;;;;4982205;28;20356;-82
2022/08/10 05:01:00;;;;;;;3.63;2.22;;;15.50;89.00;;;;;;5002912;28;20019;-82
2022/08/10 05:03:26;;;;;;;4.13;2.28;;;15.50;88.70;;;;;;5004350;28;20386;-82
2022/08/10 05:05:51;;;;;;;5.07;2.67;;;15.50;88.50;;;;;;5003708;28;20030;-83
2022/08/10 05:08:17;;;;;;;3.38;2.10;;;15.50;88.30;;;;;;4984081;28;20035;-82
2022/08/10 05:10:43;;;;;;;2.15;1.95;;;15.60;88.30;;;;;;4988011;28;20038;-83
2022/08/10 05:13:08;;;;;;;2.63;1.88;;;15.60;88.00;;;;;;4995726;28;20050;-83
2022/08/10 05:15:34;;;;;;;3.97;2.00;;;15.80;87.80;;;;;;4987150;28;20058;-83
2022/08/10 05:18:00;;;;;;;4.05;2.05;;;16.10;86.30;;;;;;4989956;28;20023;-82
2022/08/10 05:20:26;;;;;;;3.75;1.70;;;16.10;85.60;;;;;;4991225;28;20035;-83
2022/08/10 05:22:51;;;;;;;3.47;2.65;;;16.10;85.70;;;;;;4988487;28;20019;-82
2022/08/10 05:25:18;;;;;;;3.05;2.35;;;16.10;85.80;;;;;;4987444;28;20023;-82
2022/08/10 05:27:45;;;;;;;4.50;1.73;;;16.10;85.60;;;;;;4967798;28;20031;-83
2022/08/10 05:30:16;;;;;;;3.50;1.95;;;16.10;85.60;;;;;;4983180;28;20022;-82
2022/08/10 05:32:42;;;;;;;2.88;1.85;;;16.10;85.40;;;;;;4966818;28;20106;-82
2022/08/10 05:35:08;;;;;;;5.93;1.98;;;16.20;85.40;;;;;;4988386;28;20042;-82
2022/08/10 05:37:34;;;;;;;2.85;2.38;;;16.30;85.20;;;;;;4986379;28;20026;-82
2022/08/10 05:40:03;;;;;;;3.78;2.40;;;16.30;84.50;;;;;;4986771;28;20042;-83
2022/08/10 05:42:29;;;;;;;3.13;2.10;;;16.40;84.20;;;;;;4970491;28;20169;-83
2022/08/10 05:44:55;;;;;;;5.35;2.42;;;16.50;83.90;;;;;;4969107;28;20172;-83
2022/08/10 05:47:21;;;;;;;8.88;2.33;;;16.60;83.40;;;;;;4985524;28;20033;-83
2022/08/10 05:49:48;;;;;;;4.00;2.22;;;16.70;82.80;;;;;;4993281;28;20030;-83
2022/08/10 05:52:15;;;;;;;4.38;2.38;;;16.70;82.50;;;;;;4998121;28;20031;-81
2022/08/10 05:54:41;;;;;;;3.83;2.40;;;16.80;82.50;;;;;;4999641;28;20018;-82
2022/08/10 05:57:07;;;;;;;2.35;1.80;;;16.90;82.60;;;;;;4993656;28;20027;-83
2022/08/10 05:59:34;;;;;;;3.90;2.10;;;17.00;82.30;;;;;;4989239;28;20036;-83
2022/08/10 06:02:03;;;;;;;2.60;1.70;;;17.10;81.80;;;;;;4987862;28;20096;-83
2022/08/10 06:04:36;;;;;;;8.43;2.42;;;17.20;81.10;;;;;;4986834;28;20030;-82
2022/08/10 06:07:05;;;;;;;4.90;2.00;;;17.30;80.70;;;;;;5004259;28;20575;-83
2022/08/10 06:09:32;;;;;;;5.78;1.95;;;17.50;80.00;;;;;;5003098;28;20049;-83
2022/08/10 06:12:00;;;;;;;3.58;2.05;;;17.60;79.40;;;;;;5005937;28;20027;-84
2022/08/10 06:17:16;;;;;;;3.58;2.00;;;20.10;76.20;;;;;;5004178;28;20089;-81
2022/08/10 06:19:42;;;;;;;2.53;1.42;;;24.20;63.30;;;;;;4984497;28;20026;-82
2022/08/10 06:22:09;;;;;;;1.65;1.55;;;26.40;56.10;;;;;;4981930;28;20150;-82
2022/08/10 06:24:39;;;;;;;6.13;1.95;;;27.60;52.20;;;;;;5004243;28;20436;-83
2022/08/10 06:27:05;;;;;;;2.50;1.42;;;28.30;49.70;;;;;;5003618;28;20041;-82
2022/08/10 06:29:35;;;;;;;2.47;1.50;;;28.80;48.70;;;;;;4994682;28;20019;-82
2022/08/10 06:32:03;;;;;;;3.38;1.70;;;29.60;48.00;;;;;;4989345;28;20023;-82
2022/08/10 06:34:36;;;;;;;4.07;1.70;;;30.20;45.70;;;;;;4967538;28;20033;-83
2022/08/10 06:37:04;;;;;;;2.80;1.60;;;30.40;44.70;;;;;;4987403;28;20029;-83
2022/08/10 06:39:30;;;;;;;3.35;1.90;;;30.40;45.60;;;;;;4968303;28;20041;-82
2022/08/10 06:42:08;;;;;;;4.45;2.00;;;31.10;45.30;;;;;;4988313;28;20039;-82
2022/08/10 06:44:43;;;;;;;4.55;1.60;;;31.30;43.70;;;;;;4988118;28;20104;-83
2022/08/10 06:47:11;;;;;;;6.25;2.05;;;30.80;44.10;;;;;;4998860;28;20022;-82
2022/08/10 06:49:37;;;;;;;4.68;1.70;;;31.00;44.00;;;;;;4988505;28;20034;-82
2022/08/10 06:52:07;;;;;;;2.15;1.50;;;31.30;44.10;;;;;;4995140;28;20133;-82
2022/08/10 06:54:34;;;;;;;3.15;1.70;;;31.10;43.50;;;;;;4985513;28;20018;-82
2022/08/10 06:57:00;;;;;;;4.20;2.10;;;31.40;43.60;;;;;;4986786;28;20034;-82
2022/08/10 06:59:37;;;;;;;2.90;1.75;;;31.60;42.80;;;;;;4988127;28;20173;-82
2022/08/10 07:02:08;;;;;;;1.45;1.35;;;31.50;43.00;;;;;;4968041;28;20023;-82
2022/08/10 07:05:00;;;;;;;6.25;2.17;;;31.60;43.10;;;;;;4987226;28;20083;-82
2022/08/10 07:07:33;;;;;;;4.38;1.90;;;29.70;43.10;;;;;;4985338;28;20043;-82
2022/08/10 07:10:00;;;;;;;5.05;2.25;;;26.20;48.00;;;;;;4985448;28;20031;-82
2022/08/10 07:12:27;;;;;;;2.42;1.98;;;23.90;52.80;;;;;;4985391;28;20062;-82
2022/08/10 07:14:55;;;;;;;11.30;1.95;;;22.40;56.70;;;;;;4985391;28;20025;-82
2022/08/10 07:17:23;;;;;;;2.25;1.45;;;21.50;59.60;;;;;;4967822;28;20023;-82
2022/08/10 07:19:53;;;;;;;2.08;1.63;;;21.00;61.20;;;;;;4987683;28;20019;-82
2022/08/10 07:22:22;;;;;;;2.67;1.92;;;20.80;62.40;;;;;;5005422;28;20026;-82
2022/08/10 07:24:49;;;;;;;7.93;1.80;;;20.70;63.00;;;;;;5007646;28;20031;-82
2022/08/10 07:27:16;;;;;;;4.18;1.67;;;20.60;63.30;;;;;;5005928;28;20034;-83
2022/08/10 07:29:43;;;;;;;3.38;1.60;;;20.60;63.50;;;;;;5000501;28;20062;-84
2022/08/10 07:32:12;;;;;;;3.33;1.67;;;20.60;63.90;;;;;;4984430;28;20050;-82
2022/08/10 07:34:38;;;;;;;3.80;1.90;;;20.70;63.00;;;;;;4986117;28;20031;-82
2022/08/10 07:37:07;;;;;;;3.17;1.27;;;20.70;62.70;;;;;;4987331;28;20069;-82
2022/08/10 07:39:37;;;;;;;4.28;1.50;;;20.70;62.60;;;;;;4967823;28;20061;-82
2022/08/10 07:42:06;;;;;;;4.50;1.50;;;20.80;62.60;;;;;;4987802;28;20035;-82
2022/08/10 07:44:34;;;;;;;3.78;1.52;;;20.90;62.20;;;;;;4990527;28;20085;-82
2022/08/10 07:47:03;;;;;;;2.78;1.80;;;21.00;62.30;;;;;;4974025;28;20460;-82
2022/08/10 07:49:35;;;;;;;2.75;1.38;;;21.00;61.40;;;;;;4994709;28;20038;-82
2022/08/10 07:52:04;;;;;;;;;;;21.10;61.80;;;;;;4993912;28;20094;-82
2022/08/10 07:54:33;;;;;;;4.65;1.90;;;21.20;61.00;;;;;;5003676;28;19915;-82
2022/08/10 07:57:01;;;;;;;3.15;1.58;;;21.30;61.10;;;;;;5005660;28;20022;-82
2022/08/10 07:59:40;;;;;;;3.53;1.23;;;21.40;60.00;;;;;;5005879;28;20180;-82
2022/08/10 08:02:12;;;;;;;2.60;1.38;;;21.50;60.10;;;;;;4990813;28;20031;-82
2022/08/10 08:04:39;;;;;;;4.97;1.45;;;21.60;59.40;;;;;;4984694;28;20023;-82
2022/08/10 08:07:07;;;;;;;2.10;1.33;;;21.70;58.10;;;;;;4985478;28;20023;-82
2022/08/10 08:09:36;;;;;;;2.75;1.30;;;21.80;58.00;;;;;;4985883;28;20094;-82
2022/08/10 08:12:04;;;;;;;4.07;1.52;;;21.90;57.40;;;;;;4985691;28;20368;-82
2022/08/10 08:14:31;;;;;;;3.03;1.35;;;22.00;57.60;;;;;;4985403;28;20023;-82
2022/08/10 08:16:58;;;;;;;2.15;1.10;;;22.10;57.50;;;;;;4987484;28;20037;-82
2022/08/10 08:19:25;;;;;;;2.40;1.30;;;22.30;56.90;;;;;;4974137;28;20022;-82
2022/08/10 08:21:54;;;;;;;4.43;2.25;;;22.40;56.10;;;;;;4978257;28;20038;-82
2022/08/10 08:24:22;;;;;;;2.30;1.40;;;22.50;55.00;;;;;;4972372;28;20169;-82
2022/08/10 08:26:48;;;;;;;3.17;1.42;;;22.60;55.40;;;;;;4990585;28;20562;-82
2022/08/10 08:29:15;;;;;;;4.78;1.60;;;22.80;55.00;;;;;;4973242;28;20071;-83
2022/08/10 08:31:42;;;;;;;3.05;1.15;;;22.90;54.10;;;;;;4973383;28;20039;-83
2022/08/10 08:34:11;;;;;;;3.80;1.52;;;23.00;54.20;;;;;;4989725;28;20023;-83
2022/08/10 08:36:42;;;;;;;1.42;1.30;;;23.10;53.70;;;;;;4988927;28;20023;-83
2022/08/10 08:39:11;;;;;;;4.77;1.40;;;23.20;53.80;;;;;;4988608;28;20026;-83
2022/08/10 08:41:59;;;;;;;5.18;1.50;;;23.40;52.20;;;;;;4994095;28;20050;-83
2022/08/10 08:44:43;;;;;;;2.90;1.30;;;23.40;52.50;;;;;;4991880;28;20038;-83
2022/08/10 08:47:14;;;;;;;1.80;1.15;;;23.50;52.20;;;;;;4984199;28;20027;-83
2022/08/10 08:50:01;;;;;;;3.15;1.27;;;23.60;52.20;;;;;;4985804;28;20027;-84
2022/08/10 08:52:37;;;;;;;2.80;1.42;;;23.70;51.90;;;;;;5001351;28;20066;-83
2022/08/10 08:55:32;;;;;;;2.60;1.40;;;23.90;50.30;;;;;;4984635;28;20026;-83
2022/08/10 08:58:28;;;;;;;1.88;1.25;;;23.80;50.50;;;;;;5001893;28;20038;-83
2022/08/10 09:00:54;;;;;;;1.50;1.20;;;23.80;50.70;;;;;;4979777;28;20038;-82
2022/08/10 09:03:57;;;;;;;3.42;1.13;;;24.00;51.00;;;;;;4981997;28;20027;-83
2022/08/10 09:07:08;;;;;;;;;;;;;;;;;;;;;
2022/08/10 09:14:17;;;;;;;5.28;1.50;;;24.00;49.30;;;;;;4876158;29;20048;-82
2022/08/10 09:17:36;;;;;;;2.47;1.60;;;24.00;49.90;;;;;;4891779;29;20025;-82
2022/08/10 09:20:15;;;;;;;3.58;1.27;;;24.20;50.30;;;;;;4871757;29;20123;-81
2022/08/10 09:23:18;;;;;;;5.22;1.63;;;24.40;49.30;;;;;;4962861;28;20054;-82
2022/08/10 09:25:52;;;;;;;1.88;1.00;;;24.40;49.40;;;;;;4904547;28;20101;-81
2022/08/10 09:28:25;;;;;;;3.60;1.17;;;24.50;49.50;;;;;;4969546;28;20034;-81
2022/08/10 09:31:06;;;;;;;1.95;1.30;;;24.70;48.00;;;;;;4985552;28;20077;-81
2022/08/10 09:34:06;;;;;;;4.28;1.42;;;24.80;48.10;;;;;;4984769;28;20030;-82
2022/08/10 09:36:59;;;;;;;4.15;1.35;;;24.90;48.00;;;;;;4980928;28;20030;-82
2022/08/10 09:39:45;;;;;;;2.20;1.30;;;25.00;46.70;;;;;;4982363;28;20099;-82
2022/08/10 09:42:31;;;;;;;3.08;1.40;;;25.00;48.20;;;;;;4984845;28;20082;-81
2022/08/10 09:45:17;;;;;;;1.98;1.08;;;25.20;47.20;;;;;;4982124;28;20018;-82
2022/08/10 09:47:58;;;;;;;1.92;1.00;;;25.20;47.40;;;;;;4983582;28;20130;-82
2022/08/10 09:50:53;;;;;;;5.80;1.50;;;25.40;46.80;;;;;;4975366;28;20022;-82
2022/08/10 09:53:51;;;;;;;2.17;1.10;;;25.50;46.40;;;;;;4970152;28;20142;-83
2022/08/10 09:56:24;;;;;;;2.08;1.02;;;25.40;46.80;;;;;;4901945;28;20046;-82
2022/08/10 09:59:29;;;;;;;4.35;1.05;;;25.50;46.80;;;;;;4985957;28;20038;-82
2022/08/10 10:02:20;;;;;;;4.40;1.40;;;25.70;47.60;;;;;;4963424;28;20035;-82
2022/08/10 10:05:03;;;;;;;4.85;1.52;;;26.00;46.00;;;;;;4976333;28;20043;-82
2022/08/10 10:07:29;;;;;;;0.93;0.90;;;25.90;46.50;;;;;;4967960;28;20045;-82
2022/08/10 10:10:03;;;;;;;1.98;1.08;;;26.00;46.80;;;;;;4985572;28;20027;-82
2022/08/10 10:12:48;;;;;;;2.67;1.10;;;26.20;45.50;;;;;;4968610;28;20027;-82
2022/08/10 10:15:19;;;;;;;2.10;1.10;;;26.30;45.70;;;;;;4985044;28;20089;-82
2022/08/10 10:18:19;;;;;;;5.78;1.92;;;26.30;45.30;;;;;;4989648;28;20043;-82
2022/08/10 10:20:48;;;;;;;4.63;1.35;;;;;;;;;;4984318;28;20069;-82
2022/08/10 10:23:29;;;;;;;2.88;1.48;;;26.20;44.50;;;;;;5017761;28;20034;-82
2022/08/10 10:26:17;;;;;;;1.90;0.90;;;25.90;46.10;;;;;;4980358;28;20034;-81
2022/08/10 10:28:52;;;;;;;1.63;1.13;;;26.00;46.40;;;;;;4993501;28;20079;-81
2022/08/10 10:31:38;;;;;;;1.88;1.20;;;26.20;45.50;;;;;;4992567;28;20094;-82
2022/08/10 10:34:41;;;;;;;4.63;1.40;;;26.30;44.80;;;;;;4986748;28;20031;-83
2022/08/10 10:37:09;;;;;;;3.25;1.30;;;26.10;45.50;;;;;;4923955;29;20035;-82
2022/08/10 10:39:38;;;;;;;1.38;1.00;;;;;;;;;;4979096;28;20036;-82
2022/08/10 10:42:15;;;;;;;6.22;1.52;;;26.10;45.40;;;;;;4951918;29;20104;-83
2022/08/10 10:45:05;;;;;;;2.95;1.27;;;26.00;45.70;;;;;;4971829;28;20022;-83
2022/08/10 10:47:36;;;;;;;3.15;1.40;;;26.00;46.40;;;;;;4985346;28;20047;-83
2022/08/10 10:50:13;;;;;;;7.47;1.52;;;26.00;46.20;;;;;;4994643;28;20087;-83
2022/08/10 10:53:06;;;;;;;3.85;1.35;;;25.90;47.20;;;;;;4962939;29;20062;-83
2022/08/10 10:55:55;;;;;;;3.70;1.38;;;25.90;46.80;;;;;;4981298;28;20031;-83
2022/08/10 10:58:32;;;;;;;5.45;1.73;;;25.90;46.70;;;;;;4968976;28;20026;-83
2022/08/10 11:01:05;;;;;;;5.57;1.50;;;25.90;47.30;;;;;;4984390;28;20023;-83
2022/08/10 11:04:16;;;;;;;2.35;1.08;;;25.90;46.70;;;;;;4985231;28;20080;-83
2022/08/10 11:07:04;;;;;;;5.45;1.23;;;25.70;46.50;;;;;;4965580;28;20057;-83
2022/08/10 11:09:42;;;;;;;4.25;1.40;;;25.30;47.30;;;;;;4981024;28;20439;-83
2022/08/10 11:12:56;;;;;;;4.45;1.40;;;25.30;47.60;;;;;;4982616;28;20022;-83
2022/08/10 11:15:35;;;;;;;3.97;1.20;;;25.60;47.40;;;;;;4965564;28;20078;-83
2022/08/10 11:18:17;;;;;;;2.28;1.30;;;26.10;46.90;;;;;;4983419;28;20022;-83
2022/08/10 11:20:45;;;;;;;;;;;26.70;46.10;;;;;;4992704;28;20121;-83
2022/08/10 11:23:27;;;;;;;4.30;1.13;;;27.00;44.40;;;;;;5002167;28;19992;-83
2022/08/10 11:26:33;;;;;;;4.55;1.20;;;27.20;44.50;;;;;;4997604;28;20031;-81
2022/08/10 11:29:13;;;;;;;4.32;1.52;;;;;;;;;;4966116;28;20039;-82
2022/08/10 11:31:45;;;;;;;3.28;1.20;;;26.70;45.30;;;;;;4965414;28;20031;-82
2022/08/10 11:34:16;;;;;;;;;;;26.70;45.30;;;;;;4984454;28;20023;-82
2022/08/10 11:36:50;;;;;;;2.70;1.52;;;26.80;45.70;;;;;;4984747;28;19910;-83
2022/08/10 11:39:39;;;;;;;1.33;1.00;;;26.90;45.10;;;;;;4985572;28;20185;-83
2022/08/10 11:42:56;;;;;;;7.15;1.80;;;27.00;45.00;;;;;;4953629;28;20035;-84
2022/08/10 11:45:30;;;;;;;5.93;1.40;;;26.90;43.60;;;;;;4942159;28;20145;-84
2022/08/10 11:48:09;;;;;;;3.63;1.20;;;26.60;44.20;;;;;;4988597;28;20054;-84
2022/08/10 11:50:57;;;;;;;3.70;1.50;;;26.50;44.50;;;;;;4994134;28;20062;-82
2022/08/10 11:53:48;;;;;;;1.98;1.13;;;26.40;44.90;;;;;;4975267;28;20031;-83
2022/08/10 11:56:28;;;;;;;2.00;1.30;;;26.50;45.00;;;;;;4993535;28;20027;-83
2022/08/10 12:01:41;;;;;;;1.85;1.33;;;26.60;43.70;;;;;;4990031;28;20033;-83
2022/08/10 12:04:08;;;;;;;2.35;1.23;;;26.60;43.90;;;;;;4986239;28;20089;-86
2022/08/10 12:06:40;;;;;;;5.60;1.30;;;26.70;44.00;;;;;;4988425;28;20031;-85
2022/08/10 12:09:08;;;;;;;3.85;1.40;;;27.00;43.40;;;;;;4988325;28;20354;-83
2022/08/10 12:11:35;;;;;;;2.65;1.25;;;27.10;42.50;;;;;;4965838;29;20027;-83
2022/08/10 12:14:05;;;;;;;1.85;1.02;;;27.20;42.80;;;;;;4947758;29;20019;-83
2022/08/10 12:16:37;;;;;;;3.78;1.10;;;27.20;42.30;;;;;;4963640;29;20019;-82
2022/08/10 12:19:14;;;;;;;4.22;1.20;;;27.50;41.70;;;;;;4983988;28;20022;-84
2022/08/10 12:21:54;;;;;;;3.88;1.00;;;27.50;41.90;;;;;;4982928;28;20113;-83
2022/08/10 12:24:42;;;;;;;3.83;1.10;;;27.70;41.20;;;;;;4980554;28;20034;-85
2022/08/10 12:27:15;;;;;;;2.95;1.10;;;27.60;41.10;;;;;;4985568;28;20066;-81
2022/08/10 12:29:54;;;;;;;3.67;1.83;;;27.40;41.60;;;;;;4966288;28;20031;-83
2022/08/10 12:32:48;;;;;;;1.80;1.23;;;27.50;42.20;;;;;;4984652;28;20062;-82
2022/08/10 12:35:17;;;;;;;4.25;1.00;;;27.50;42.30;;;;;;4966674;28;20027;-80
2022/08/10 12:38:34;;;;;;;1.30;1.17;;;27.90;41.90;;;;;;4996116;28;20042;-80
2022/08/10 12:41:03;;;;;;;3.15;1.00;;;28.40;41.50;;;;;;4951074;28;20027;-83
2022/08/10 12:43:35;;;;;;;1.83;1.10;;;28.70;40.60;;;;;;4985285;28;20015;-82
2022/08/10 12:46:27;;;;;;;5.55;1.33;;;28.40;41.20;;;;;;4985561;28;20027;-82
2022/08/10 12:49:16;;;;;;;5.22;1.38;;;28.10;40.80;;;;;;4987271;28;20023;-80
2022/08/10 12:51:46;;;;;;;3.22;1.17;;;27.80;41.40;;;;;;4977337;28;20090;-80
2022/08/10 12:54:17;;;;;;;4.50;1.10;;;27.40;41.60;;;;;;4971052;28;20122;-82
2022/08/10 12:56:59;;;;;;;5.13;0.90;;;27.30;41.50;;;;;;4989682;28;20073;-82
2022/08/10 12:59:27;;;;;;;2.70;1.20;;;27.30;42.70;;;;;;4969464;28;20098;-82
2022/08/10 13:01:55;;;;;;;6.25;1.00;;;27.40;41.90;;;;;;4965342;28;20031;-81
2022/08/10 13:04:42;;;;;;;3.70;1.13;;;27.60;41.60;;;;;;4977964;28;20023;-81
2022/08/10 13:07:08;;;;;;;1.52;1.23;;;27.70;41.50;;;;;;4993046;28;20045;-83
2022/08/10 13:09:35;;;;;;;2.75;0.88;;;27.70;41.20;;;;;;4968700;28;20031;-83
2022/08/10 13:12:14;;;;;;;4.15;1.10;;;27.60;41.50;;;;;;4984865;28;20031;-83
2022/08/10 13:14:52;;;;;;;1.17;1.10;;;27.80;41.20;;;;;;4987833;28;20082;-85
2022/08/10 13:17:29;;;;;;;3.00;0.93;;;27.80;40.60;;;;;;4969388;28;20023;-85
2022/08/10 13:19:58;;;;;;;3.22;1.20;;;27.60;40.50;;;;;;4979056;28;20035;-83
2022/08/10 13:22:27;;;;;;;2.55;1.10;;;27.70;41.10;;;;;;4990324;28;20023;-83
2022/08/10 13:24:57;;;;;;;2.58;0.90;;;27.80;41.10;;;;;;4988219;28;20034;-82
2022/08/10 13:27:26;;;;;;;5.80;1.35;;;28.00;40.90;;;;;;4987587;28;20027;-84
2022/08/10 13:29:57;;;;;;;1.55;0.98;;;28.00;39.90;;;;;;4987241;28;20046;-83
2022/08/10 13:32:28;;;;;;;2.28;1.08;;;28.00;39.90;;;;;;4970484;28;20034;-84
2022/08/10 13:34:56;;;;;;;1.33;1.10;;;28.10;40.00;;;;;;4988310;28;20031;-83